Time;durP1;ratioP1;P1;durP2;ratioP2;P2;SDS_P1;SDS_P2;PMS_P1;PMS_P2;Temp;Humidity;BMP_temperature;BMP_pressure;BME280_temperature;BME280_humidity;BME280_pressure;Samples;Min_cycle;Max_cycle;Signal;HPM_P1;HPM_P2
2022/09/19 00:01:12;;;;;;;1.60;0.63;;;;;;;-144.22;100.00;60274.75;6256349;28;20707;-42
2022/09/19 00:04:16;;;;;;;0.77;0.77;;;;;;;-144.22;100.00;60274.75;6257373;28;20769;-41
2022/09/19 00:07:18;;;;;;;1.50;0.50;;;;;;;-144.22;100.00;60274.75;6256299;28;20773;-42
2022/09/19 00:10:20;;;;;;;0.77;0.67;;;;;;;-144.22;100.00;60274.75;6256634;28;20280;-41
2022/09/19 00:13:21;;;;;;;4.57;0.63;;;;;;;-144.22;100.00;60274.75;6256184;28;20790;-42
2022/09/19 00:16:30;;;;;;;2.57;0.70;;;;;;;-144.22;100.00;60274.75;6257076;28;20556;-44
2022/09/19 00:19:32;;;;;;;1.93;0.60;;;;;;;-144.22;100.00;60274.75;6256350;28;20925;-41
2022/09/19 00:22:34;;;;;;;2.07;0.50;;;;;;;-144.22;100.00;60274.75;6256816;28;20231;-42
2022/09/19 00:25:36;;;;;;;1.23;0.57;;;;;;;-144.22;100.00;60274.75;6256187;28;20314;-42
2022/09/19 00:28:39;;;;;;;1.43;0.50;;;;;;;-144.22;100.00;60274.75;6255857;28;20600;-41
2022/09/19 00:31:43;;;;;;;1.60;0.57;;;;;;;-144.22;100.00;60274.75;6256163;28;20263;-42
2022/09/19 00:34:47;;;;;;;1.20;0.80;;;;;;;-144.22;100.00;60274.75;6255277;28;20668;-42
2022/09/19 00:37:49;;;;;;;1.10;0.70;;;;;;;-144.22;100.00;60274.75;6255038;28;20367;-41
2022/09/19 00:40:52;;;;;;;1.63;0.50;;;;;;;-144.22;100.00;60274.75;6255237;28;20235;-42
2022/09/19 00:44:03;;;;;;;0.50;0.50;;;;;;;-144.22;100.00;60274.75;6236591;28;20235;-42
2022/09/19 00:47:11;;;;;;;1.77;0.60;;;;;;;-144.22;100.00;60274.75;6255513;28;20642;-42
2022/09/19 00:50:27;;;;;;;1.80;0.80;;;;;;;-144.22;100.00;60274.75;6255403;28;20283;-43
2022/09/19 00:53:30;;;;;;;2.40;0.70;;;;;;;-144.22;100.00;60274.75;6256440;28;20225;-42
2022/09/19 00:56:34;;;;;;;1.90;0.57;;;;;;;-144.22;100.00;60274.75;6254399;28;20741;-42
2022/09/19 00:59:40;;;;;;;1.63;0.67;;;;;;;-144.22;100.00;60274.75;6254337;28;20219;-42
2022/09/19 01:02:42;;;;;;;0.73;0.50;;;;;;;-144.22;100.00;60274.75;6254240;28;20240;-41
2022/09/19 01:06:34;;;;;;;1.27;0.83;;;;;;;-144.22;100.00;60274.75;6229902;28;20233;-43
2022/09/19 01:10:00;;;;;;;1.00;0.70;;;;;;;-144.22;100.00;60274.75;6158541;28;20227;-42
2022/09/19 01:13:24;;;;;;;0.87;0.53;;;;;;;-144.22;100.00;60274.75;6230983;28;20374;-42
2022/09/19 01:16:47;;;;;;;0.60;0.50;;;;;;;-144.22;100.00;60274.75;6229877;28;20266;-42
2022/09/19 01:19:55;;;;;;;1.43;0.70;;;;;;;-144.22;100.00;60274.75;6229872;28;20234;-42
2022/09/19 01:23:36;;;;;;;0.80;0.70;;;;;;;-144.22;100.00;60274.75;6231083;28;20529;-42
2022/09/19 01:27:00;;;;;;;1.23;0.57;;;;;;;-144.22;100.00;60274.75;6229633;28;20244;-43
2022/09/19 01:30:05;;;;;;;2.13;0.87;;;;;;;-144.22;100.00;60274.75;6229877;28;20236;-41
2022/09/19 01:33:21;;;;;;;0.63;0.40;;;;;;;-144.22;100.00;60274.75;6230469;28;20317;-42
2022/09/19 01:36:30;;;;;;;1.20;0.50;;;;;;;-144.22;100.00;60274.75;6229688;28;20234;-42
2022/09/19 01:39:38;;;;;;;0.97;0.67;;;;;;;-144.22;100.00;60274.75;6229676;28;20544;-43
2022/09/19 01:42:55;;;;;;;1.70;0.70;;;;;;;-144.22;100.00;60274.75;6211021;28;20587;-42
2022/09/19 01:46:07;;;;;;;2.53;0.70;;;;;;;-144.22;100.00;60274.75;6232785;28;20232;-42
2022/09/19 01:49:22;;;;;;;0.70;0.67;;;;;;;-144.22;100.00;60274.75;6229752;28;20250;-42
2022/09/19 01:52:24;;;;;;;2.03;0.83;;;;;;;-144.22;100.00;60274.75;6212956;28;20537;-41
2022/09/19 01:55:39;;;;;;;1.80;0.53;;;;;;;-144.22;100.00;60274.75;6228132;28;20298;-41
2022/09/19 01:59:05;;;;;;;0.80;0.60;;;;;;;-144.22;100.00;60274.75;6211461;28;20236;-43
2022/09/19 02:02:23;;;;;;;1.03;0.70;;;;;;;-144.22;100.00;60274.75;6211658;28;20240;-42
2022/09/19 02:05:49;;;;;;;3.93;0.67;;;;;;;-144.22;100.00;60274.75;6233492;28;20608;-43
2022/09/19 02:09:08;;;;;;;0.40;0.40;;;;;;;-144.22;100.00;60274.75;6253849;28;20251;-41
2022/09/19 02:12:22;;;;;;;1.53;0.47;;;;;;;-144.22;100.00;60274.75;6253630;28;20244;-42
2022/09/19 02:15:29;;;;;;;0.50;0.50;;;;;;;-144.22;100.00;60274.75;6254937;28;20307;-41
2022/09/19 02:18:40;;;;;;;0.97;0.40;;;;;;;-144.22;100.00;60274.75;6254241;28;20253;-41
2022/09/19 02:21:52;;;;;;;0.63;0.50;;;;;;;-144.22;100.00;60274.75;6236211;28;20235;-42
2022/09/19 02:24:58;;;;;;;0.40;0.30;;;;;;;-144.22;100.00;60274.75;6254397;28;20280;-41
2022/09/19 02:28:09;;;;;;;1.40;0.50;;;;;;;-144.22;100.00;60274.75;6252639;28;20245;-42
2022/09/19 02:31:12;;;;;;;0.73;0.40;;;;;;;-144.22;100.00;60274.75;6235922;28;20281;-42
2022/09/19 02:34:15;;;;;;;0.37;0.37;;;;;;;-144.22;100.00;60274.75;6235260;28;20313;-42
2022/09/19 02:37:29;;;;;;;1.63;0.40;;;;;;;-144.22;100.00;60274.75;6253873;28;20239;-42
2022/09/19 02:40:44;;;;;;;0.90;0.30;;;;;;;-144.22;100.00;60274.75;6235535;28;20741;-42
2022/09/19 02:43:56;;;;;;;0.43;0.40;;;;;;;-144.22;100.00;60274.75;6252083;28;20649;-42
2022/09/19 02:47:26;;;;;;;0.50;0.30;;;;;;;-144.22;100.00;60274.75;6236999;28;20235;-41
2022/09/19 02:50:50;;;;;;;0.93;0.33;;;;;;;-144.22;100.00;60274.75;6241978;28;20228;-43
2022/09/19 02:53:58;;;;;;;0.87;0.50;;;;;;;-144.22;100.00;60274.75;6228506;28;20225;-42
2022/09/19 02:57:07;;;;;;;0.43;0.37;;;;;;;-144.22;100.00;60274.75;6212168;28;20631;-41
2022/09/19 03:00:12;;;;;;;0.57;0.37;;;;;;;-144.22;100.00;60274.75;6230401;28;20595;-42
2022/09/19 03:07:00;;;;;;;1.07;0.47;;;;;;;-144.22;100.00;60274.75;6211436;28;20247;-42
2022/09/19 03:10:22;;;;;;;0.30;0.27;;;;;;;-144.22;100.00;60274.75;6233787;28;20331;-42
2022/09/19 03:13:33;;;;;;;0.43;0.40;;;;;;;-144.22;100.00;60274.75;6232329;28;20712;-42
2022/09/19 03:16:41;;;;;;;0.37;0.33;;;;;;;-144.22;100.00;60274.75;6215558;28;20232;-42
2022/09/19 03:19:47;;;;;;;3.47;0.50;;;;;;;-144.22;100.00;60274.75;6221460;28;20235;-43
2022/09/19 03:22:52;;;;;;;0.40;0.33;;;;;;;-144.22;100.00;60274.75;6239720;28;20226;-42
2022/09/19 03:25:56;;;;;;;0.50;0.40;;;;;;;-144.22;100.00;60274.75;6242641;28;20574;-42
2022/09/19 03:28:59;;;;;;;0.43;0.30;;;;;;;-144.22;100.00;60274.75;6262019;28;20706;-42
2022/09/19 03:32:08;;;;;;;0.83;0.40;;;;;;;-144.22;100.00;60274.75;6257013;28;20224;-42
2022/09/19 03:35:10;;;;;;;0.80;0.40;;;;;;;-144.22;100.00;60274.75;6239482;28;20233;-42
2022/09/19 03:38:13;;;;;;;1.40;0.30;;;;;;;-144.22;100.00;60274.75;6256865;28;20361;-42
2022/09/19 03:41:20;;;;;;;0.40;0.20;;;;;;;-144.22;100.00;60274.75;6256623;28;20353;-42
2022/09/19 03:44:22;;;;;;;0.27;0.23;;;;;;;-144.22;100.00;60274.75;6256660;28;20594;-42
2022/09/19 03:47:24;;;;;;;0.50;0.23;;;;;;;-144.22;100.00;60274.75;6255898;28;20246;-42
2022/09/19 03:50:27;;;;;;;1.43;0.20;;;;;;;-144.22;100.00;60274.75;6257637;28;20234;-42
2022/09/19 03:53:42;;;;;;;0.70;0.30;;;;;;;-144.22;100.00;60274.75;6255725;28;20235;-42
2022/09/19 03:56:45;;;;;;;0.30;0.30;;;;;;;-144.22;100.00;60274.75;6238875;28;20257;-44
2022/09/19 03:59:48;;;;;;;0.53;0.20;;;;;;;-144.22;100.00;60274.75;6256948;28;20233;-43
2022/09/19 04:02:52;;;;;;;0.47;0.30;;;;;;;-144.22;100.00;60274.75;6256290;28;20227;-41
2022/09/19 04:05:54;;;;;;;1.70;0.30;;;;;;;-144.22;100.00;60274.75;6238472;28;20265;-42
2022/09/19 04:08:59;;;;;;;0.20;0.20;;;;;;;-144.22;100.00;60274.75;6238586;28;20247;-42
2022/09/19 04:12:05;;;;;;;1.43;0.40;;;;;;;-144.22;100.00;60274.75;6254829;28;20226;-42
2022/09/19 04:15:10;;;;;;;0.20;0.20;;;;;;;-144.22;100.00;60274.75;6238860;28;20798;-43
2022/09/19 04:18:15;;;;;;;0.40;0.40;;;;;;;-144.22;100.00;60274.75;6254256;28;20219;-41
2022/09/19 04:21:18;;;;;;;0.57;0.30;;;;;;;-144.22;100.00;60274.75;6238451;28;20301;-41
2022/09/19 04:24:43;;;;;;;0.83;0.30;;;;;;;-144.22;100.00;60274.75;6253436;28;20231;-42
2022/09/19 04:27:54;;;;;;;1.37;0.50;;;;;;;-144.22;100.00;60274.75;6255474;28;20261;-41
2022/09/19 04:30:56;;;;;;;0.30;0.30;;;;;;;-144.22;100.00;60274.75;6238750;28;20302;-41
2022/09/19 04:33:58;;;;;;;0.40;0.40;;;;;;;-144.22;100.00;60274.75;6255424;28;20548;-41
2022/09/19 04:37:02;;;;;;;0.20;0.20;;;;;;;-144.22;100.00;60274.75;6238229;28;20291;-41
2022/09/19 04:40:07;;;;;;;0.43;0.30;;;;;;;-144.22;100.00;60274.75;6256309;28;20231;-42
2022/09/19 04:43:11;;;;;;;0.40;0.20;;;;;;;-144.22;100.00;60274.75;6238834;28;20234;-41
2022/09/19 04:46:21;;;;;;;1.00;0.27;;;;;;;-144.22;100.00;60274.75;6237343;28;20625;-41
2022/09/19 04:49:34;;;;;;;0.27;0.27;;;;;;;-144.22;100.00;60274.75;6255693;28;20239;-41
2022/09/19 04:52:38;;;;;;;0.20;0.20;;;;;;;-144.22;100.00;60274.75;6254242;28;20227;-42
2022/09/19 04:55:40;;;;;;;0.30;0.30;;;;;;;-144.22;100.00;60274.75;6255556;28;20239;-41
2022/09/19 04:58:42;;;;;;;0.50;0.50;;;;;;;-144.22;100.00;60274.75;6254994;28;20238;-42
2022/09/19 05:01:51;;;;;;;0.20;0.20;;;;;;;-144.22;100.00;60274.75;6242718;28;20231;-42
2022/09/19 05:04:55;;;;;;;0.33;0.30;;;;;;;-144.22;100.00;60274.75;6229110;28;20261;-42
2022/09/19 05:07:57;;;;;;;0.50;0.30;;;;;;;-144.22;100.00;60274.75;6212664;28;20714;-41
2022/09/19 05:11:01;;;;;;;0.60;0.30;;;;;;;-144.22;100.00;60274.75;6228421;28;20722;-42
2022/09/19 05:14:04;;;;;;;0.30;0.30;;;;;;;-144.22;100.00;60274.75;6228802;28;20331;-42
2022/09/19 05:17:10;;;;;;;0.33;0.23;;;;;;;-144.22;100.00;60274.75;6228284;28;20242;-42
2022/09/19 05:20:14;;;;;;;0.53;0.30;;;;;;;-144.22;100.00;60274.75;6231132;28;20306;-42
2022/09/19 05:23:16;;;;;;;0.57;0.20;;;;;;;-144.22;100.00;60274.75;6212037;28;20658;-42
2022/09/19 05:26:18;;;;;;;2.63;0.37;;;;;;;-144.22;100.00;60274.75;6229884;28;20239;-42
2022/09/19 05:29:24;;;;;;;0.20;0.20;;;;;;;-144.22;100.00;60274.75;6212288;28;20246;-42
2022/09/19 05:32:34;;;;;;;0.30;0.20;;;;;;;-144.22;100.00;60274.75;6228646;28;20706;-42
2022/09/19 05:35:41;;;;;;;1.03;0.40;;;;;;;-144.22;100.00;60274.75;6228840;28;20243;-42
2022/09/19 05:38:53;;;;;;;1.73;0.30;;;;;;;-144.22;100.00;60274.75;6228423;28;20243;-42
2022/09/19 05:42:21;;;;;;;0.83;0.30;;;;;;;-144.22;100.00;60274.75;6229192;28;20239;-42
2022/09/19 05:45:23;;;;;;;0.20;0.20;;;;;;;-144.22;100.00;60274.75;6228639;28;20322;-42
2022/09/19 05:48:26;;;;;;;0.97;0.50;;;;;;;-144.22;100.00;60274.75;6228856;28;20655;-43
2022/09/19 05:51:29;;;;;;;0.40;0.40;;;;;;;-144.22;100.00;60274.75;6211431;28;20342;-42
2022/09/19 05:54:32;;;;;;;0.30;0.30;;;;;;;-144.22;100.00;60274.75;6227206;28;20242;-42
2022/09/19 05:58:07;;;;;;;0.70;0.40;;;;;;;-144.22;100.00;60274.75;6217785;28;20231;-42
2022/09/19 06:01:11;;;;;;;0.80;0.40;;;;;;;-144.22;100.00;60274.75;6212834;28;20648;-41
2022/09/19 06:04:13;;;;;;;1.53;0.40;;;;;;;-144.22;100.00;60274.75;6241364;28;20322;-41
2022/09/19 06:07:16;;;;;;;1.50;0.60;;;;;;;-144.22;100.00;60274.75;6252462;28;20246;-42
2022/09/19 06:10:20;;;;;;;0.93;0.33;;;;;;;-144.22;100.00;60274.75;6235832;28;20238;-42
2022/09/19 06:13:23;;;;;;;1.83;0.57;;;;;;;-144.22;100.00;60274.75;6252320;28;20702;-42
2022/09/19 06:16:27;;;;;;;0.60;0.33;;;;;;;-144.22;100.00;60274.75;6256780;28;20232;-42
2022/09/19 06:19:48;;;;;;;1.80;0.57;;;;;;;-144.22;100.00;60274.75;6253809;28;20273;-41
2022/09/19 06:23:17;;;;;;;2.73;0.50;;;;;;;-144.22;100.00;60274.75;6253046;28;20234;-42
2022/09/19 06:26:20;;;;;;;1.50;0.70;;;;;;;-144.22;100.00;60274.75;6235836;28;20239;-43
2022/09/19 06:29:24;;;;;;;1.60;0.40;;;;;;;-144.22;100.00;60274.75;6254248;28;20235;-42
2022/09/19 06:33:06;;;;;;;2.43;0.53;;;;;;;-144.22;100.00;60274.75;6153469;28;20242;-42
2022/09/19 06:36:29;;;;;;;0.23;0.20;;;;;;;-144.22;100.00;60274.75;6160204;28;20245;-42
2022/09/19 06:39:31;;;;;;;0.90;0.40;;;;;;;-144.22;100.00;60274.75;6253035;28;20223;-42
2022/09/19 06:43:01;;;;;;;1.97;0.53;;;;;;;-144.22;100.00;60274.75;6255956;28;20262;-42
2022/09/19 06:46:37;;;;;;;1.70;0.50;;;;;;;-144.22;100.00;60274.75;6252833;28;20277;-41
2022/09/19 06:49:44;;;;;;;2.67;0.87;;;;;;;-144.22;100.00;60274.75;6259556;28;20235;-41
2022/09/19 06:53:17;;;;;;;2.10;0.40;;;;;;;-144.22;100.00;60274.75;6255171;28;20238;-42
2022/09/19 06:56:22;;;;;;;0.47;0.30;;;;;;;-144.22;100.00;60274.75;6240085;28;20566;-41
2022/09/19 06:59:24;;;;;;;0.87;0.40;;;;;;;-144.22;100.00;60274.75;6239915;28;20238;-42
2022/09/19 07:02:28;;;;;;;2.63;0.60;;;;;;;-144.22;100.00;60274.75;6257184;28;20227;-42
2022/09/19 07:05:31;;;;;;;0.73;0.40;;;;;;;-144.22;100.00;60274.75;6231792;28;20224;-41
2022/09/19 07:08:54;;;;;;;1.30;0.47;;;;;;;-144.22;100.00;60274.75;6237884;28;20337;-42
2022/09/19 07:11:56;;;;;;;0.87;0.30;;;;;;;-144.22;100.00;60274.75;6217568;28;20671;-42
2022/09/19 07:15:02;;;;;;;4.27;0.43;;;;;;;-144.22;100.00;60274.75;6214542;28;20714;-42
2022/09/19 07:18:10;;;;;;;0.87;0.30;;;;;;;-144.22;100.00;60274.75;6215667;28;20226;-42
2022/09/19 07:21:13;;;;;;;3.63;0.40;;;;;;;-144.22;100.00;60274.75;6223344;28;20217;-42
2022/09/19 07:24:20;;;;;;;1.63;0.50;;;;;;;-144.22;100.00;60274.75;6207617;28;20369;-42
2022/09/19 07:27:42;;;;;;;0.40;0.33;;;;;;;-144.22;100.00;60274.75;6208083;28;20250;-42
2022/09/19 07:30:46;;;;;;;1.43;0.30;;;;;;;-144.22;100.00;60274.75;6222784;28;20239;-42
2022/09/19 07:33:55;;;;;;;0.23;0.23;;;;;;;-144.22;100.00;60274.75;6230814;28;20371;-42
2022/09/19 07:37:00;;;;;;;0.30;0.30;;;;;;;-144.22;100.00;60274.75;6231334;28;20309;-42
2022/09/19 07:40:02;;;;;;;0.43;0.30;;;;;;;-144.22;100.00;60274.75;6232408;28;20240;-42
2022/09/19 07:43:19;;;;;;;1.17;0.40;;;;;;;-144.22;100.00;60274.75;6232077;28;20236;-42
2022/09/19 07:47:26;;;;;;;1.40;0.37;;;;;;;-144.22;100.00;60274.75;6234325;28;20891;-42
2022/09/19 07:50:37;;;;;;;1.43;0.50;;;;;;;-144.22;100.00;60274.75;6158859;28;20243;-42
2022/09/19 07:53:54;;;;;;;0.87;0.47;;;;;;;-144.22;100.00;60274.75;6213036;28;20237;-41
2022/09/19 07:56:56;;;;;;;0.50;0.30;;;;;;;-144.22;100.00;60274.75;6232626;28;20233;-41
2022/09/19 08:00:00;;;;;;;1.87;0.43;;;;;;;-144.22;100.00;60274.75;6214357;28;20228;-42
2022/09/19 08:03:11;;;;;;;1.03;0.30;;;;;;;-144.22;100.00;60274.75;6216738;28;20238;-41
2022/09/19 08:06:13;;;;;;;1.00;0.30;;;;;;;-144.22;100.00;60274.75;6237856;28;20579;-41
2022/09/19 08:09:16;;;;;;;0.50;0.30;;;;;;;-144.22;100.00;60274.75;6256592;28;20231;-42
2022/09/19 08:12:38;;;;;;;0.57;0.30;;;;;;;-144.22;100.00;60274.75;6239362;28;20300;-40
2022/09/19 08:15:45;;;;;;;1.20;0.40;;;;;;;-144.22;100.00;60274.75;6256501;28;20236;-41
2022/09/19 08:18:47;;;;;;;1.30;0.30;;;;;;;-144.22;100.00;60274.75;6238505;28;20720;-42
2022/09/19 08:21:50;;;;;;;2.00;0.50;;;;;;;-144.22;100.00;60274.75;6237953;28;20227;-41
2022/09/19 08:24:53;;;;;;;1.03;0.30;;;;;;;-144.22;100.00;60274.75;6255954;28;20666;-41
2022/09/19 08:27:56;;;;;;;2.20;0.30;;;;;;;-144.22;100.00;60274.75;6237044;28;20650;-42
2022/09/19 08:31:00;;;;;;;0.33;0.27;;;;;;;-144.22;100.00;60274.75;6237714;28;20725;-41
2022/09/19 08:34:05;;;;;;;1.20;0.33;;;;;;;-144.22;100.00;60274.75;6237279;28;20231;-42
2022/09/19 08:37:07;;;;;;;0.70;0.40;;;;;;;-144.22;100.00;60274.75;6237680;28;20226;-43
2022/09/19 08:40:25;;;;;;;1.77;0.30;;;;;;;-144.22;100.00;60274.75;6255246;28;20242;-42
2022/09/19 08:43:40;;;;;;;0.20;0.20;;;;;;;-144.22;100.00;60274.75;6254989;28;20243;-41
2022/09/19 08:46:47;;;;;;;0.20;0.20;;;;;;;-144.22;100.00;60274.75;6255165;28;20250;-44
2022/09/19 08:50:25;;;;;;;0.60;0.20;;;;;;;-144.22;100.00;60274.75;6254008;28;20281;-41
2022/09/19 08:53:34;;;;;;;0.87;0.30;;;;;;;-144.22;100.00;60274.75;6237352;28;20227;-42
2022/09/19 08:56:38;;;;;;;0.23;0.20;;;;;;;-144.22;100.00;60274.75;6255504;28;20388;-42
2022/09/19 08:59:41;;;;;;;0.23;0.23;;;;;;;-144.22;100.00;60274.75;6237228;28;20769;-43
2022/09/19 09:02:51;;;;;;;0.53;0.43;;;;;;;-144.22;100.00;60274.75;6255053;28;20238;-41
2022/09/19 09:06:35;;;;;;;1.87;0.73;;;;;;;-144.22;100.00;60274.75;6253034;28;20311;-42
2022/09/19 09:09:42;;;;;;;0.30;0.30;;;;;;;-144.22;100.00;60274.75;6255283;28;20235;-41
2022/09/19 09:12:56;;;;;;;0.87;0.50;;;;;;;-144.22;100.00;60274.75;6236874;28;20229;-40
2022/09/19 09:16:26;;;;;;;0.90;0.40;;;;;;;-144.22;100.00;60274.75;6253654;28;20490;-43
2022/09/19 09:19:51;;;;;;;0.63;0.30;;;;;;;-144.22;100.00;60274.75;6237563;28;20235;-42
2022/09/19 09:23:14;;;;;;;0.97;0.37;;;;;;;-144.22;100.00;60274.75;6254501;28;20241;-41
2022/09/19 09:26:27;;;;;;;0.30;0.30;;;;;;;-144.22;100.00;60274.75;6253150;28;20232;-42
2022/09/19 09:29:38;;;;;;;0.30;0.30;;;;;;;-144.22;100.00;60274.75;6254515;28;20704;-41
2022/09/19 09:32:56;;;;;;;0.57;0.57;;;;;;;-144.22;100.00;60274.75;6252571;28;20238;-42
2022/09/19 09:36:10;;;;;;;0.80;0.40;;;;;;;-144.22;100.00;60274.75;6235561;28;20217;-42
2022/09/19 09:39:27;;;;;;;0.87;0.60;;;;;;;-144.22;100.00;60274.75;6235653;28;20209;-41
2022/09/19 09:42:42;;;;;;;0.50;0.30;;;;;;;-144.22;100.00;60274.75;6253296;28;20244;-42
2022/09/19 09:45:51;;;;;;;0.77;0.30;;;;;;;-144.22;100.00;60274.75;6215214;28;20238;-42
2022/09/19 09:49:01;;;;;;;0.50;0.50;;;;;;;-144.22;100.00;60274.75;6229061;28;20290;-41
2022/09/19 09:52:35;;;;;;;1.07;0.40;;;;;;;-144.22;100.00;60274.75;6234612;28;20257;-41
2022/09/19 09:56:14;;;;;;;0.40;0.40;;;;;;;-144.22;100.00;60274.75;6253925;28;20580;-41
2022/09/19 10:03:34;;;;;;;3.00;0.47;;;;;;;-144.22;100.00;60274.75;6253124;28;20582;-41
2022/09/19 10:07:38;;;;;;;0.57;0.40;;;;;;;-144.22;100.00;60274.75;6245211;28;20223;-41
2022/09/19 10:10:42;;;;;;;2.37;0.60;;;;;;;-144.22;100.00;60274.75;6204150;28;20613;-41
2022/09/19 10:13:56;;;;;;;0.20;0.20;;;;;;;-144.22;100.00;60274.75;6235175;28;20231;-41
2022/09/19 10:17:01;;;;;;;0.43;0.30;;;;;;;-144.22;100.00;60274.75;6253677;28;20705;-41
2022/09/19 10:20:22;;;;;;;0.50;0.20;;;;;;;-144.22;100.00;60274.75;6235000;28;20239;-41
2022/09/19 10:23:32;;;;;;;0.70;0.30;;;;;;;-144.22;100.00;60274.75;6258086;28;20235;-41
2022/09/19 10:26:48;;;;;;;0.70;0.30;;;;;;;-144.22;100.00;60274.75;6252515;28;20717;-41
2022/09/19 10:30:15;;;;;;;0.77;0.40;;;;;;;-144.22;100.00;60274.75;6251775;28;20235;-41
2022/09/19 10:33:38;;;;;;;0.30;0.30;;;;;;;-144.22;100.00;60274.75;6233967;28;20223;-41
2022/09/19 10:36:47;;;;;;;0.30;0.30;;;;;;;-144.22;100.00;60274.75;6237786;28;20598;-42
2022/09/19 10:39:50;;;;;;;0.30;0.30;;;;;;;-144.22;100.00;60274.75;6252823;28;20223;-42
2022/09/19 10:43:04;;;;;;;0.40;0.30;;;;;;;-144.22;100.00;60274.75;6235318;28;20597;-41
2022/09/19 10:46:15;;;;;;;1.77;0.57;;;;;;;-144.22;100.00;60274.75;6235192;28;20709;-43
2022/09/19 10:49:26;;;;;;;0.50;0.30;;;;;;;-144.22;100.00;60274.75;6235502;28;20239;-41
2022/09/19 10:52:33;;;;;;;0.43;0.43;;;;;;;-144.22;100.00;60274.75;6236570;28;20238;-43
2022/09/19 10:55:56;;;;;;;0.43;0.40;;;;;;;-144.22;100.00;60274.75;6236608;28;20617;-42
2022/09/19 10:59:07;;;;;;;0.73;0.47;;;;;;;-144.22;100.00;60274.75;6253363;28;20235;-41
2022/09/19 11:02:23;;;;;;;0.50;0.30;;;;;;;-144.22;100.00;60274.75;6254039;28;20699;-41
2022/09/19 11:05:30;;;;;;;1.00;0.57;;;;;;;-144.22;100.00;60274.75;6252409;28;20840;-41
2022/09/19 11:08:46;;;;;;;0.40;0.40;;;;;;;-144.22;100.00;60274.75;6234661;28;20498;-41
2022/09/19 11:12:22;;;;;;;0.50;0.43;;;;;;;-144.22;100.00;60274.75;6235054;28;20238;-42
2022/09/19 11:15:26;;;;;;;1.00;0.40;;;;;;;-144.22;100.00;60274.75;6248967;28;20265;-40
2022/09/19 11:18:46;;;;;;;0.50;0.47;;;;;;;-144.22;100.00;60274.75;6251847;28;20248;-41
2022/09/19 11:22:19;;;;;;;0.80;0.30;;;;;;;-144.22;100.00;60274.75;6230628;28;20569;-41
2022/09/19 11:25:45;;;;;;;1.13;0.43;;;;;;;-144.22;100.00;60274.75;6209944;28;20251;-43
2022/09/19 11:29:09;;;;;;;1.43;0.50;;;;;;;-144.22;100.00;60274.75;6212220;28;20707;-44
2022/09/19 11:32:34;;;;;;;0.97;0.70;;;;;;;-144.22;100.00;60274.75;6224547;28;20258;-42
2022/09/19 11:36:34;;;;;;;0.50;0.40;;;;;;;-144.22;100.00;60274.75;6239557;28;20266;-41
2022/09/19 11:40:04;;;;;;;1.27;0.50;;;;;;;-144.22;100.00;60274.75;6238894;28;20623;-42
2022/09/19 11:43:30;;;;;;;1.57;0.70;;;;;;;-144.22;100.00;60274.75;6238735;28;20231;-41
2022/09/19 11:46:55;;;;;;;0.67;0.60;;;;;;;-144.22;100.00;60274.75;6256947;28;20697;-41
2022/09/19 11:50:02;;;;;;;1.33;0.60;;;;;;;-144.22;100.00;60274.75;6238345;28;20336;-41
2022/09/19 11:53:29;;;;;;;1.10;0.50;;;;;;;-144.22;100.00;60274.75;6255953;28;20237;-42
2022/09/19 11:57:00;;;;;;;0.67;0.50;;;;;;;-144.22;100.00;60274.75;6257002;28;20245;-42
2022/09/19 12:00:21;;;;;;;0.47;0.47;;;;;;;-144.22;100.00;60274.75;6256601;28;20249;-42
2022/09/19 12:03:44;;;;;;;1.77;0.60;;;;;;;-144.22;100.00;60274.75;6238401;28;20235;-41
2022/09/19 12:07:16;;;;;;;0.97;0.80;;;;;;;-144.22;100.00;60274.75;6237396;28;20230;-41
2022/09/19 12:10:24;;;;;;;1.67;1.20;;;;;;;-144.22;100.00;60274.75;6238920;28;20259;-42
2022/09/19 12:13:49;;;;;;;1.80;1.70;;;;;;;-144.22;100.00;60274.75;6255426;28;20245;-42
2022/09/19 12:17:06;;;;;;;1.87;1.50;;;;;;;-144.22;100.00;60274.75;6238204;28;20239;-41
2022/09/19 12:20:26;;;;;;;1.60;1.50;;;;;;;-144.22;100.00;60274.75;6230137;28;20288;-43
2022/09/19 12:27:18;;;;;;;1.27;1.07;;;;;;;-144.22;100.00;60274.75;6213034;28;20805;-41
2022/09/19 12:30:25;;;;;;;2.60;1.57;;;;;;;-144.22;100.00;60274.75;6213253;28;20234;-41
2022/09/19 12:33:39;;;;;;;1.43;1.33;;;;;;;-144.22;100.00;60274.75;6249810;28;20229;-41
2022/09/19 12:36:50;;;;;;;1.67;1.33;;;;;;;-144.22;100.00;60274.75;6237210;28;20228;-41
2022/09/19 12:40:04;;;;;;;2.27;1.47;;;;;;;-144.22;100.00;60274.75;6254534;28;20306;-41
2022/09/19 12:43:07;;;;;;;1.30;1.20;;;;;;;-144.22;100.00;60274.75;6238118;28;20638;-41
2022/09/19 12:46:39;;;;;;;2.50;1.37;;;;;;;-144.22;100.00;60274.75;6255257;28;20225;-41
2022/09/19 12:49:58;;;;;;;1.73;1.43;;;;;;;-144.22;100.00;60274.75;6115823;29;20279;-41
2022/09/19 12:53:21;;;;;;;1.00;1.00;;;;;;;-144.22;100.00;60274.75;6131675;28;20265;-41
2022/09/19 12:56:36;;;;;;;5.20;1.40;;;;;;;-144.22;100.00;60274.75;6114886;28;20226;-41
2022/09/19 12:59:40;;;;;;;1.60;0.83;;;;;;;-144.22;100.00;60274.75;6131867;28;20232;-41
2022/09/19 13:02:51;;;;;;;1.27;1.00;;;;;;;-144.22;100.00;60274.75;6131738;28;20646;-43
2022/09/19 13:05:59;;;;;;;1.40;1.20;;;;;;;-144.22;100.00;60274.75;6130723;28;20731;-41
2022/09/19 13:09:05;;;;;;;0.93;0.93;;;;;;;-144.22;100.00;60274.75;6130903;28;20357;-41
2022/09/19 13:12:36;;;;;;;2.50;0.87;;;;;;;-144.22;100.00;60274.75;6132114;28;20276;-43
2022/09/19 13:15:41;;;;;;;1.53;1.10;;;;;;;-144.22;100.00;60274.75;6131308;28;20352;-42
2022/09/19 13:25:26;;;;;;;2.00;1.23;;;;;;;-144.22;100.00;60274.75;6132548;28;20245;-42
2022/09/19 13:28:34;;;;;;;2.30;1.10;;;;;;;-144.22;100.00;60274.75;6229389;28;20238;-40
2022/09/19 13:31:57;;;;;;;2.50;0.77;;;;;;;-144.22;100.00;60274.75;6232774;28;20710;-41
2022/09/19 13:35:14;;;;;;;1.53;0.87;;;;;;;-144.22;100.00;60274.75;6253309;28;20227;-40
2022/09/19 13:38:25;;;;;;;1.77;0.90;;;;;;;-144.22;100.00;60274.75;6238543;28;20822;-40
2022/09/19 13:41:53;;;;;;;1.20;0.83;;;;;;;-144.22;100.00;60274.75;6254238;28;20231;-42
2022/09/19 13:45:17;;;;;;;2.27;0.83;;;;;;;-144.22;100.00;60274.75;6254394;28;20741;-42
2022/09/19 13:48:42;;;;;;;2.10;0.87;;;;;;;19.28;49.81;97515.53;6252985;28;20599;-41
2022/09/19 13:51:54;;;;;;;2.07;0.80;;;;;;;20.19;46.81;97525.91;6254310;28;20696;-40
2022/09/19 13:55:13;;;;;;;0.50;0.50;;;;;;;19.10;48.58;97520.38;6253742;28;20222;-42
2022/09/19 13:58:17;;;;;;;3.33;0.60;;;;;;;19.15;47.89;97510.81;6253806;28;20231;-40
2022/09/19 14:01:21;;;;;;;0.87;0.60;;;;;;;21.20;44.64;97521.47;6254070;28;20372;-41
2022/09/19 14:07:53;;;;;;;0.67;0.47;;;;;;;18.58;48.19;97530.97;6253854;28;20227;-40
2022/09/19 14:11:30;;;;;;;0.60;0.50;;;;;;;16.12;54.96;97527.94;6253082;28;20714;-40
2022/09/19 14:14:40;;;;;;;1.30;0.70;;;;;;;14.72;60.37;97529.03;6253083;28;20805;-41
2022/09/19 14:18:12;;;;;;;1.10;0.40;;;;;;;14.25;63.45;97527.56;6255003;28;20227;-40
2022/09/19 14:21:26;;;;;;;2.17;0.60;;;;;;;14.14;63.84;97531.25;6252628;28;20328;-40
2022/09/19 14:24:42;;;;;;;0.60;0.50;;;;;;;14.12;63.76;97516.44;6253562;28;20308;-41
2022/09/19 14:27:55;;;;;;;1.60;0.57;;;;;;;13.65;64.50;97524.53;6255145;28;20223;-41
2022/09/19 14:31:10;;;;;;;0.50;0.50;;;;;;;13.41;65.27;97526.84;6253047;28;20227;-41
2022/09/19 14:34:37;;;;;;;2.73;0.40;;;;;;;13.59;65.20;97522.44;6228736;28;20700;-41
2022/09/19 14:37:51;;;;;;;2.40;0.70;;;;;;;13.72;65.11;97528.25;6227880;28;20298;-41
2022/09/19 14:41:10;;;;;;;0.77;0.50;;;;;;;13.22;64.61;97533.88;6228510;28;20728;-40
2022/09/19 14:44:40;;;;;;;1.23;0.60;;;;;;;12.80;65.33;97528.03;6210726;28;20695;-41
2022/09/19 14:47:51;;;;;;;0.87;0.50;;;;;;;12.74;65.19;97541.84;6228164;28;20318;-43
2022/09/19 14:50:56;;;;;;;2.23;0.60;;;;;;;12.59;65.56;97537.94;6242926;28;20242;-41
2022/09/19 14:54:26;;;;;;;0.80;0.50;;;;;;;12.62;67.13;97537.66;6252916;28;20772;-42
2022/09/19 14:57:30;;;;;;;0.80;0.60;;;;;;;12.54;67.97;97537.53;6252515;28;20717;-41
2022/09/19 15:00:37;;;;;;;1.20;0.60;;;;;;;12.35;69.26;97548.94;6253230;28;20616;-42